Time;durP1;ratioP1;P1;durP2;ratioP2;P2;SDS_P1;SDS_P2;PMS_P1;PMS_P2;Temp;Humidity;BMP_temperature;BMP_pressure;BME280_temperature;BME280_humidity;BME280_pressure;Samples;Min_cycle;Max_cycle;Signal;HPM_P1;HPM_P2
2023/06/29 00:00:34;;;;;;;16.13;9.82;;;;;;;22.78;53.75;101546.94;5038349;28;20053;-66
2023/06/29 00:03:03;;;;;;;15.60;9.93;;;;;;;22.76;53.46;101541.75;5044782;28;20122;-66
2023/06/29 00:05:30;;;;;;;12.40;9.52;;;;;;;22.76;54.17;101536.25;5038377;28;20128;-66
2023/06/29 00:07:59;;;;;;;13.77;9.60;;;;;;;22.74;53.37;101536.53;5042809;28;20045;-67
2023/06/29 00:10:28;;;;;;;16.98;10.55;;;;;;;22.74;53.61;101538.47;5043380;28;20041;-67
2023/06/29 00:12:57;;;;;;;14.50;10.52;;;;;;;22.74;53.67;101532.97;5044641;28;20041;-66
2023/06/29 00:15:25;;;;;;;12.35;8.88;;;;;;;22.73;53.66;101525.88;5043292;28;20049;-66
2023/06/29 00:17:55;;;;;;;12.57;9.20;;;;;;;22.72;53.86;101524.22;5044132;28;20057;-66
2023/06/29 00:20:28;;;;;;;16.27;10.57;;;;;;;22.70;53.76;101530.00;5042626;28;20050;-67
2023/06/29 00:22:57;;;;;;;13.90;10.20;;;;;;;22.70;54.43;101521.78;5044272;28;20049;-66
2023/06/29 00:25:25;;;;;;;12.13;9.43;;;;;;;22.70;54.05;101523.69;5037010;28;20050;-66
2023/06/29 00:27:52;;;;;;;15.07;9.77;;;;;;;22.67;53.49;101514.13;5044503;28;20108;-67
2023/06/29 00:30:21;;;;;;;14.52;10.52;;;;;;;22.68;54.48;101515.75;5040486;28;20045;-66
2023/06/29 00:32:49;;;;;;;13.45;9.90;;;;;;;22.68;54.19;101523.16;5043849;28;20111;-67
2023/06/29 00:35:17;;;;;;;12.07;9.35;;;;;;;22.68;53.98;101523.97;5042544;28;20053;-66
2023/06/29 00:37:45;;;;;;;15.75;11.32;;;;;;;22.67;54.64;101516.88;5043862;28;20483;-66
2023/06/29 00:40:13;;;;;;;12.50;9.43;;;;;;;22.67;54.38;101525.09;5043506;28;20138;-66
2023/06/29 00:42:42;;;;;;;13.88;9.80;;;;;;;22.68;54.11;101523.16;5043939;28;20049;-65
2023/06/29 00:45:11;;;;;;;14.23;10.75;;;;;;;22.67;54.23;101514.13;5043645;28;20497;-66
2023/06/29 00:47:40;;;;;;;14.00;10.40;;;;;;;22.67;54.10;101521.53;5033187;28;20042;-65
2023/06/29 00:50:09;;;;;;;14.15;9.43;;;;;;;22.66;53.90;101519.91;5040422;28;20121;-66
2023/06/29 00:52:37;;;;;;;13.55;9.98;;;;;;;22.65;54.25;101513.59;5044044;28;20046;-66
2023/06/29 00:55:05;;;;;;;17.00;10.68;;;;;;;22.66;54.34;101517.16;5038764;28;20091;-67
2023/06/29 00:57:33;;;;;;;11.20;8.43;;;;;;;22.65;53.35;101516.34;5044299;28;20062;-66
2023/06/29 01:00:01;;;;;;;15.55;9.23;;;;;;;22.65;54.41;101512.78;5042877;28;20068;-66
2023/06/29 01:02:30;;;;;;;14.98;11.27;;;;;;;22.64;53.97;101498.25;5043417;28;20526;-66
2023/06/29 01:05:00;;;;;;;13.20;9.93;;;;;;;22.64;54.03;101500.19;5043392;28;20068;-66
2023/06/29 01:07:31;;;;;;;14.68;10.65;;;;;;;22.63;53.56;101488.41;5041559;28;20049;-66
2023/06/29 01:10:00;;;;;;;14.70;10.77;;;;;;;22.60;53.97;101488.16;5043130;28;20060;-66
2023/06/29 01:12:28;;;;;;;14.77;10.02;;;;;;;22.61;54.14;101498.00;5044356;28;20180;-66
2023/06/29 01:14:57;;;;;;;13.88;9.90;;;;;;;22.61;54.28;101495.28;5042892;28;20068;-66
2023/06/29 01:17:30;;;;;;;13.68;10.32;;;;;;;22.61;53.68;101492.53;5040789;28;20073;-67
2023/06/29 01:20:02;;;;;;;14.65;10.38;;;;;;;22.60;53.97;101491.72;5040101;28;20107;-67
2023/06/29 01:22:36;;;;;;;15.18;9.90;;;;;;;22.60;53.75;101494.47;5040653;28;20050;-66
2023/06/29 01:25:06;;;;;;;12.63;9.27;;;;;;;22.59;53.59;101494.75;5037250;28;20403;-66
2023/06/29 01:27:34;;;;;;;14.07;10.30;;;;;;;22.59;53.69;101484.59;5041761;28;20049;-66
2023/06/29 01:30:04;;;;;;;15.38;10.55;;;;;;;22.56;54.37;101479.69;5043559;28;20050;-67
2023/06/29 01:32:34;;;;;;;14.60;9.88;;;;;;;22.54;53.76;101481.91;5042955;28;20046;-67
2023/06/29 01:35:04;;;;;;;13.32;9.85;;;;;;;22.55;53.89;101486.28;5042951;28;20136;-66
2023/06/29 01:37:39;;;;;;;13.57;9.65;;;;;;;22.55;54.09;101482.72;5041006;28;20048;-67
2023/06/29 01:40:12;;;;;;;11.27;8.85;;;;;;;22.53;54.14;101474.81;5028413;28;20058;-66
2023/06/29 01:42:42;;;;;;;12.48;9.63;;;;;;;22.46;53.77;101459.81;5042361;28;20053;-65
2023/06/29 01:45:12;;;;;;;15.85;10.43;;;;;;;22.52;54.43;101472.38;5043511;28;20049;-66
2023/06/29 01:47:41;;;;;;;14.07;10.30;;;;;;;22.51;53.86;101471.56;5036773;28;20103;-66
2023/06/29 01:50:10;;;;;;;14.02;9.93;;;;;;;22.50;53.92;101467.19;5044377;28;20137;-67
2023/06/29 01:52:38;;;;;;;11.77;9.40;;;;;;;22.47;53.99;101465.00;5043750;28;20463;-66
2023/06/29 01:55:08;;;;;;;13.95;9.45;;;;;;;22.48;54.15;101463.91;5040097;28;20084;-66
2023/06/29 01:57:37;;;;;;;12.88;8.98;;;;;;;22.47;54.25;101462.28;5042155;28;20057;-66
2023/06/29 02:00:06;;;;;;;15.63;10.02;;;;;;;22.47;54.47;101467.75;5045177;28;20184;-67
2023/06/29 02:02:33;;;;;;;13.90;10.18;;;;;;;22.46;54.38;101466.13;5046810;28;20050;-67
2023/06/29 02:05:01;;;;;;;13.40;10.10;;;;;;;22.45;54.26;101459.00;5047295;28;20053;-67
2023/06/29 02:07:29;;;;;;;17.55;10.10;;;;;;;22.44;54.02;101457.38;5046681;28;20049;-67
2023/06/29 02:09:57;;;;;;;13.73;10.13;;;;;;;22.44;54.06;101459.28;5046926;28;20129;-66
2023/06/29 02:12:25;;;;;;;13.85;9.98;;;;;;;22.43;54.50;101455.72;5039787;28;20045;-66
2023/06/29 02:14:54;;;;;;;15.43;10.88;;;;;;;22.43;54.59;101463.13;5044039;28;20041;-66
2023/06/29 02:17:22;;;;;;;12.98;10.20;;;;;;;22.42;54.43;101451.34;5046840;28;20076;-66
2023/06/29 02:19:50;;;;;;;14.70;10.10;;;;;;;22.40;53.98;101451.63;5046357;28;20064;-67
2023/06/29 02:22:17;;;;;;;15.63;11.23;;;;;;;22.41;54.16;101455.19;5046731;28;20049;-66
2023/06/29 02:24:45;;;;;;;15.98;10.93;;;;;;;22.41;54.42;101452.47;5045714;28;20094;-66
2023/06/29 02:27:13;;;;;;;14.73;10.60;;;;;;;22.42;54.39;101447.78;5046254;28;20049;-66
2023/06/29 02:29:41;;;;;;;13.07;9.93;;;;;;;22.40;54.18;101445.34;5045752;28;20053;-67
2023/06/29 02:32:10;;;;;;;15.02;11.13;;;;;;;22.39;54.32;101443.72;5045958;28;20050;-67
2023/06/29 02:34:38;;;;;;;14.10;10.38;;;;;;;22.39;54.47;101446.44;5044439;28;20072;-66
2023/06/29 02:37:05;;;;;;;14.95;11.32;;;;;;;22.38;54.71;101444.81;5046416;28;20057;-67
2023/06/29 02:39:33;;;;;;;16.20;11.73;;;;;;;22.36;54.84;101445.09;5044329;28;20068;-66
2023/06/29 02:42:01;;;;;;;16.40;10.50;;;;;;;22.36;54.72;101442.34;5034676;28;20065;-66
2023/06/29 02:44:29;;;;;;;15.70;10.55;;;;;;;22.37;54.74;101446.72;5041621;28;20072;-66
2023/06/29 02:46:56;;;;;;;13.43;10.70;;;;;;;22.35;54.75;101446.19;5044566;28;20055;-66
2023/06/29 02:49:26;;;;;;;16.02;10.27;;;;;;;22.35;54.67;101437.16;5046625;28;20046;-67
2023/06/29 02:51:53;;;;;;;15.02;9.57;;;;;;;22.34;54.31;101432.78;5037098;28;20049;-66
2023/06/29 02:54:21;;;;;;;14.85;11.02;;;;;;;22.34;54.33;101435.53;5045631;28;20057;-66
2023/06/29 02:56:49;;;;;;;15.80;10.65;;;;;;;22.33;54.62;101428.41;5045327;28;20148;-67
2023/06/29 02:59:17;;;;;;;16.98;11.13;;;;;;;22.32;54.40;101427.59;5045744;28;20487;-66
2023/06/29 03:01:45;;;;;;;17.38;10.30;;;;;;;22.33;54.59;101426.50;5040825;28;20089;-66
2023/06/29 03:04:13;;;;;;;13.48;10.15;;;;;;;22.32;54.40;101424.06;5039845;28;20095;-67
2023/06/29 03:06:42;;;;;;;14.73;11.27;;;;;;;22.32;54.42;101426.78;5041858;28;20488;-66
2023/06/29 03:09:10;;;;;;;15.80;11.30;;;;;;;22.31;55.09;101425.97;5045490;28;20526;-66
2023/06/29 03:11:38;;;;;;;13.95;10.75;;;;;;;22.30;55.23;101429.00;5045378;28;20056;-66
2023/06/29 03:14:06;;;;;;;15.65;10.52;;;;;;;22.30;54.87;101431.72;5044706;28;20045;-66
2023/06/29 03:16:34;;;;;;;18.73;12.63;;;;;;;22.27;54.89;101422.16;5046351;28;20049;-67
2023/06/29 03:19:01;;;;;;;15.60;10.90;;;;;;;22.28;54.89;101425.72;5045185;28;20136;-66
2023/06/29 03:21:29;;;;;;;18.58;11.00;;;;;;;22.26;55.13;101423.28;5045634;28;20103;-66
2023/06/29 03:23:58;;;;;;;16.30;11.30;;;;;;;22.26;55.07;101422.44;5044647;28;20490;-66
2023/06/29 03:26:26;;;;;;;17.65;12.38;;;;;;;22.26;54.89;101419.72;5045542;28;20049;-66
2023/06/29 03:28:54;;;;;;;15.88;11.85;;;;;;;22.25;54.95;101418.91;5043611;28;20123;-65
2023/06/29 03:31:21;;;;;;;16.42;10.95;;;;;;;22.23;55.25;101418.38;5041179;28;20049;-65
2023/06/29 03:33:49;;;;;;;16.80;12.20;;;;;;;22.23;55.49;101420.28;5043727;28;20104;-66
2023/06/29 03:36:19;;;;;;;17.23;12.07;;;;;;;22.22;55.75;101410.44;5043579;28;20056;-67
2023/06/29 03:38:46;;;;;;;15.60;11.30;;;;;;;22.22;55.62;101415.91;5040085;28;20053;-66
2023/06/29 03:41:16;;;;;;;19.38;13.40;;;;;;;22.20;55.75;101412.66;5040754;28;20053;-66
2023/06/29 03:43:43;;;;;;;15.85;11.35;;;;;;;22.19;55.80;101414.56;5040866;28;20097;-66
2023/06/29 03:46:11;;;;;;;16.35;11.57;;;;;;;22.19;55.84;101411.81;5044918;28;20195;-67
2023/06/29 03:48:39;;;;;;;14.23;11.23;;;;;;;22.18;55.65;101418.41;5035106;28;20107;-66
2023/06/29 03:51:07;;;;;;;14.63;11.80;;;;;;;22.17;55.48;101411.28;5044861;28;20038;-66
2023/06/29 03:53:35;;;;;;;16.63;11.20;;;;;;;22.17;55.62;101415.94;5040052;28;20611;-66
2023/06/29 03:56:03;;;;;;;18.20;12.18;;;;;;;22.16;55.99;101409.66;5044468;28;20049;-67
2023/06/29 03:58:32;;;;;;;15.43;12.32;;;;;;;22.16;55.78;101408.84;5040886;28;20045;-67
2023/06/29 04:01:00;;;;;;;16.85;12.05;;;;;;;22.15;55.66;101399.00;5043740;28;20054;-66
2023/06/29 04:03:28;;;;;;;15.27;11.10;;;;;;;22.15;55.84;101407.22;5042594;28;20049;-66
2023/06/29 04:05:56;;;;;;;16.08;11.52;;;;;;;22.14;55.79;101408.31;5039998;28;20117;-66
2023/06/29 04:08:23;;;;;;;17.98;12.55;;;;;;;22.13;55.90;101404.75;5043637;28;20111;-66
2023/06/29 04:10:51;;;;;;;17.58;11.98;;;;;;;22.12;56.18;101399.56;5044667;28;20103;-65
2023/06/29 04:13:19;;;;;;;16.75;12.23;;;;;;;22.12;55.89;101400.38;5043131;28;20049;-66
2023/06/29 04:15:48;;;;;;;17.25;11.82;;;;;;;22.12;56.13;101399.56;5043733;28;20059;-65
2023/06/29 04:18:16;;;;;;;16.85;11.45;;;;;;;22.12;55.95;101394.09;5043312;28;20465;-66
2023/06/29 04:20:44;;;;;;;17.27;12.88;;;;;;;22.11;56.20;101396.00;5044545;28;20075;-66
2023/06/29 04:23:14;;;;;;;16.98;11.63;;;;;;;22.11;55.67;101397.94;5041180;28;20506;-66
2023/06/29 04:25:42;;;;;;;15.77;10.32;;;;;;;22.10;55.78;101386.16;5044108;28;20053;-66
2023/06/29 04:28:12;;;;;;;15.05;11.50;;;;;;;22.10;55.46;101386.16;5032338;28;20046;-67
2023/06/29 04:30:41;;;;;;;16.13;11.65;;;;;;;22.10;55.64;101391.63;5043592;28;20076;-66
2023/06/29 04:33:10;;;;;;;16.33;12.02;;;;;;;22.10;55.55;101391.63;5043038;28;20049;-66
2023/06/29 04:35:39;;;;;;;16.88;11.98;;;;;;;22.10;55.81;101388.91;5044481;28;20088;-66
2023/06/29 04:38:09;;;;;;;16.40;11.63;;;;;;;22.10;55.64;101390.81;5044644;28;20045;-66
2023/06/29 04:40:36;;;;;;;17.83;11.75;;;;;;;22.10;55.45;101390.81;5039669;28;20049;-66
2023/06/29 04:43:06;;;;;;;17.35;12.10;;;;;;;22.08;55.97;101386.44;5034360;28;20054;-67
2023/06/29 04:45:34;;;;;;;17.83;12.07;;;;;;;22.08;55.95;101391.91;5039592;28;20105;-67
2023/06/29 04:48:02;;;;;;;15.57;11.00;;;;;;;22.08;55.98;101388.38;5043453;28;20045;-67
2023/06/29 04:50:35;;;;;;;15.43;11.48;;;;;;;22.08;55.74;101393.84;5043226;28;20092;-69
2023/06/29 04:53:09;;;;;;;16.10;11.60;;;;;;;22.08;55.60;101388.38;5038798;28;20096;-68
2023/06/29 04:55:37;;;;;;;14.95;11.80;;;;;;;22.06;55.60;101383.19;5038164;28;20049;-67
2023/06/29 04:58:05;;;;;;;18.92;12.25;;;;;;;22.08;55.60;101388.38;5040137;28;20069;-67
2023/06/29 05:00:33;;;;;;;15.77;11.68;;;;;;;22.08;55.41;101391.09;5040510;28;20049;-66
2023/06/29 05:03:01;;;;;;;15.93;11.50;;;;;;;22.07;55.45;101390.28;5042468;28;20049;-66
2023/06/29 05:05:31;;;;;;;15.15;11.13;;;;;;;22.07;55.53;101387.53;5039885;28;20053;-66
2023/06/29 05:07:59;;;;;;;17.20;12.73;;;;;;;22.06;55.70;101380.44;5044570;28;20069;-66
2023/06/29 05:10:26;;;;;;;16.92;12.13;;;;;;;22.06;55.89;101382.34;5043711;28;20042;-67
2023/06/29 05:12:54;;;;;;;16.08;12.10;;;;;;;22.04;55.78;101382.66;5042268;28;20049;-65
2023/06/29 05:15:22;;;;;;;17.95;12.13;;;;;;;22.05;55.83;101397.16;5038481;28;20057;-66
2023/06/29 05:17:50;;;;;;;16.85;12.02;;;;;;;22.04;55.56;101390.03;5043918;28;20045;-67
2023/06/29 05:20:18;;;;;;;15.93;12.13;;;;;;;22.03;55.84;101386.47;5043719;28;20101;-67
2023/06/29 05:22:47;;;;;;;16.05;11.90;;;;;;;22.01;55.91;101383.19;5044400;28;20053;-67
2023/06/29 05:25:15;;;;;;;18.42;12.05;;;;;;;22.02;56.34;101384.03;5041726;28;20076;-68
2023/06/29 05:27:43;;;;;;;19.38;13.15;;;;;;;21.99;56.62;101379.91;5044282;28;20053;-66
2023/06/29 05:30:13;;;;;;;17.60;11.65;;;;;;;22.00;56.34;101378.00;5042817;28;20049;-66
2023/06/29 05:32:40;;;;;;;20.40;12.35;;;;;;;22.00;56.55;101378.00;5044264;28;20053;-67
2023/06/29 05:35:08;;;;;;;20.00;13.18;;;;;;;21.99;56.82;101376.34;5040154;28;20072;-66
2023/06/29 05:37:36;;;;;;;18.92;13.02;;;;;;;21.99;56.62;101374.44;5047671;28;20042;-66
2023/06/29 05:40:08;;;;;;;20.35;12.50;;;;;;;21.99;56.25;101382.66;5045186;28;20049;-66
2023/06/29 05:42:36;;;;;;;16.83;12.20;;;;;;;22.03;56.13;101375.53;4696998;28;10000117;-69
2023/06/29 05:45:04;;;;;;;19.15;12.57;;;;;;;22.02;56.24;101375.81;5037177;28;20046;-69
2023/06/29 05:47:32;;;;;;;19.65;12.95;;;;;;;22.01;56.49;101385.09;5045386;28;20076;-68
2023/06/29 05:50:00;;;;;;;18.92;13.00;;;;;;;21.99;56.39;101382.66;5046184;28;20113;-69
2023/06/29 05:52:28;;;;;;;16.80;11.38;;;;;;;22.00;56.11;101383.47;5046187;28;20052;-66
2023/06/29 05:54:55;;;;;;;15.70;12.23;;;;;;;21.99;56.25;101370.88;5043244;28;20053;-66
2023/06/29 05:57:24;;;;;;;18.92;12.07;;;;;;;21.98;56.34;101381.00;5045109;28;20265;-67
2023/06/29 05:59:52;;;;;;;17.58;12.52;;;;;;;21.99;56.17;101373.63;5041859;28;20053;-66
2023/06/29 06:02:20;;;;;;;21.88;11.98;;;;;;;22.00;56.00;101378.00;5045682;28;20081;-66
2023/06/29 06:04:49;;;;;;;19.05;12.60;;;;;;;22.01;55.75;101376.88;5044100;28;20060;-66
2023/06/29 06:07:27;;;;;;;20.42;12.80;;;;;;;22.01;56.08;101383.19;5037731;28;20046;-66
2023/06/29 06:09:55;;;;;;;17.17;12.68;;;;;;;22.01;55.81;101376.88;5045019;28;20060;-67
2023/06/29 06:12:23;;;;;;;23.92;13.88;;;;;;;22.01;56.21;101368.69;5047117;28;20091;-67
2023/06/29 06:14:52;;;;;;;29.00;13.57;;;;;;;22.01;56.61;101374.16;5039632;28;20053;-66
2023/06/29 06:17:20;;;;;;;26.42;12.82;;;;;;;22.01;56.25;101372.22;5045885;28;20072;-66
2023/06/29 06:19:48;;;;;;;19.15;12.23;;;;;;;22.02;56.03;101373.91;5035901;28;20046;-66
2023/06/29 06:22:15;;;;;;;26.20;13.05;;;;;;;21.99;55.71;101366.22;5042829;28;20041;-66
2023/06/29 06:24:43;;;;;;;16.58;11.95;;;;;;;22.03;55.90;101369.25;5043508;28;20080;-66
2023/06/29 06:27:11;;;;;;;17.30;12.25;;;;;;;22.02;55.65;101371.16;5045543;28;20060;-66
2023/06/29 06:29:39;;;;;;;19.92;12.70;;;;;;;22.02;55.72;101373.91;5046523;28;20060;-67
2023/06/29 06:32:08;;;;;;;19.45;12.35;;;;;;;22.02;55.81;101373.91;5045952;28;20050;-66
2023/06/29 06:34:37;;;;;;;21.42;12.13;;;;;;;22.03;55.72;101374.72;5047042;28;20076;-67
2023/06/29 06:37:06;;;;;;;20.35;13.05;;;;;;;22.04;55.66;101376.34;5045531;28;20076;-66
2023/06/29 06:39:34;;;;;;;20.77;12.27;;;;;;;22.03;55.74;101372.81;5045008;28;20045;-66
2023/06/29 06:42:01;;;;;;;20.52;13.00;;;;;;;22.04;55.47;101368.13;5047228;28;20045;-67
2023/06/29 06:44:29;;;;;;;22.27;11.73;;;;;;;22.05;55.40;101367.84;5045507;28;20049;-66
2023/06/29 06:46:57;;;;;;;16.92;12.05;;;;;;;22.04;55.35;101368.13;5042226;28;20053;-66
2023/06/29 06:49:26;;;;;;;22.23;13.05;;;;;;;22.06;55.06;101371.41;5046664;28;20103;-66
2023/06/29 06:51:54;;;;;;;15.35;11.48;;;;;;;22.06;54.95;101369.50;5046171;28;20045;-66
2023/06/29 06:54:22;;;;;;;14.07;10.93;;;;;;;22.07;54.87;101373.84;5045628;28;20077;-66
2023/06/29 06:56:51;;;;;;;17.38;11.48;;;;;;;22.08;55.20;101366.47;5045755;28;20072;-67
2023/06/29 06:59:20;;;;;;;18.00;10.57;;;;;;;22.10;55.08;101368.91;5045894;28;20045;-67
2023/06/29 07:01:47;;;;;;;16.45;11.43;;;;;;;22.11;55.00;101365.06;5044307;28;20049;-65
2023/06/29 07:04:15;;;;;;;15.88;11.82;;;;;;;22.11;54.78;101370.56;5046269;28;20111;-66
2023/06/29 07:06:46;;;;;;;17.00;11.70;;;;;;;22.13;55.03;101369.16;5044934;28;20487;-66
2023/06/29 07:09:14;;;;;;;16.52;11.65;;;;;;;22.14;54.88;101370.78;5039934;28;20049;-66
2023/06/29 07:11:42;;;;;;;19.83;11.50;;;;;;;22.15;55.12;101366.94;5041821;28;20050;-66
2023/06/29 07:14:10;;;;;;;17.20;11.52;;;;;;;22.16;55.15;101368.59;5037000;28;20095;-66
2023/06/29 07:16:38;;;;;;;16.02;11.73;;;;;;;22.18;54.97;101369.13;5037557;28;20042;-65
2023/06/29 07:19:08;;;;;;;15.00;10.93;;;;;;;22.18;55.21;101360.91;5038649;28;20065;-66
2023/06/29 07:21:39;;;;;;;15.57;11.40;;;;;;;22.21;55.40;101365.00;5045822;28;20053;-66
2023/06/29 07:24:09;;;;;;;19.02;12.45;;;;;;;22.21;55.19;101362.25;5046228;28;20045;-66
2023/06/29 07:26:38;;;;;;;17.35;11.90;;;;;;;22.21;55.04;101359.50;5045350;28;20484;-66
2023/06/29 07:29:06;;;;;;;16.45;11.35;;;;;;;22.22;55.15;101356.50;5045775;28;20054;-67
2023/06/29 07:31:35;;;;;;;16.20;12.43;;;;;;;22.23;55.26;101355.38;5044432;28;20045;-66
2023/06/29 07:34:03;;;;;;;15.75;11.80;;;;;;;22.30;55.40;101357.78;5045581;28;20075;-66
2023/06/29 07:36:31;;;;;;;18.10;12.90;;;;;;;22.29;55.27;101351.50;5045865;28;20099;-67
2023/06/29 07:38:58;;;;;;;19.27;12.35;;;;;;;22.28;54.88;101349.88;5042805;28;20050;-67
2023/06/29 07:41:27;;;;;;;17.08;11.70;;;;;;;22.33;54.95;101355.28;5035233;28;20049;-67
2023/06/29 07:43:57;;;;;;;14.95;11.13;;;;;;;22.32;54.98;101359.13;5045762;28;20488;-67
2023/06/29 07:46:25;;;;;;;18.13;12.73;;;;;;;22.29;55.17;101343.28;5038197;28;20045;-67
2023/06/29 07:48:53;;;;;;;18.50;12.48;;;;;;;22.33;55.09;101343.53;5041356;28;20099;-66
2023/06/29 07:51:22;;;;;;;18.80;11.88;;;;;;;22.35;55.12;101347.59;5041058;28;20045;-66
2023/06/29 07:53:50;;;;;;;16.45;12.23;;;;;;;22.36;54.99;101348.44;5045318;28;20045;-66
2023/06/29 07:56:18;;;;;;;18.48;12.30;;;;;;;22.36;54.69;101354.72;5037102;28;20049;-66
2023/06/29 07:58:48;;;;;;;15.25;11.43;;;;;;;22.38;54.84;101348.94;5042734;28;20570;-66
2023/06/29 08:01:19;;;;;;;18.52;11.90;;;;;;;22.39;54.62;101348.66;5042845;28;20067;-66
2023/06/29 08:03:47;;;;;;;18.30;12.43;;;;;;;22.40;54.82;101344.81;5044057;28;20053;-66
2023/06/29 08:06:28;;;;;;;16.13;11.90;;;;;;;22.45;54.42;101354.09;5045207;28;20093;-66
2023/06/29 08:09:00;;;;;;;18.33;12.60;;;;;;;22.44;54.68;101346.97;5032527;28;20198;-66
2023/06/29 08:11:28;;;;;;;16.17;11.20;;;;;;;22.47;54.38;101351.88;5035443;28;20053;-66
2023/06/29 08:13:57;;;;;;;17.75;11.95;;;;;;;22.47;54.66;101344.47;5035556;28;20510;-66
2023/06/29 08:16:25;;;;;;;16.23;11.88;;;;;;;22.47;54.31;101340.91;5044700;28;20053;-67
2023/06/29 08:18:53;;;;;;;16.67;11.52;;;;;;;22.47;54.55;101343.66;5043104;28;20049;-66
2023/06/29 08:21:21;;;;;;;16.50;12.07;;;;;;;22.48;54.28;101345.28;5043469;28;20045;-66
2023/06/29 08:23:50;;;;;;;17.00;13.20;;;;;;;22.48;54.57;101348.03;5043753;28;20041;-66
2023/06/29 08:26:19;;;;;;;17.65;12.07;;;;;;;22.40;54.33;101331.13;5044622;28;20076;-67
2023/06/29 08:28:47;;;;;;;18.50;12.95;;;;;;;22.52;54.54;101344.44;5044905;28;20111;-66
2023/06/29 08:31:16;;;;;;;18.45;12.68;;;;;;;22.55;54.53;101346.56;5042947;28;20046;-66
2023/06/29 08:33:44;;;;;;;17.13;12.35;;;;;;;22.54;54.54;101347.66;5036919;28;20046;-66
2023/06/29 08:36:11;;;;;;;17.33;12.10;;;;;;;22.55;54.40;101343.00;5044571;28;20076;-66
2023/06/29 08:38:39;;;;;;;20.35;12.93;;;;;;;22.50;54.11;101329.38;5044683;28;20056;-66
2023/06/29 08:41:07;;;;;;;16.40;11.57;;;;;;;22.57;54.39;101336.13;5041295;28;20055;-66
2023/06/29 08:43:35;;;;;;;18.13;13.43;;;;;;;22.57;54.06;101347.09;5044973;28;20113;-66
2023/06/29 08:46:03;;;;;;;17.40;12.85;;;;;;;22.59;54.30;101344.88;5044274;28;20053;-66
2023/06/29 08:48:34;;;;;;;18.35;12.30;;;;;;;22.61;54.04;101337.19;5043681;28;20064;-65
2023/06/29 08:51:04;;;;;;;19.77;12.40;;;;;;;22.64;54.07;101336.59;5046647;28;20080;-66
2023/06/29 08:53:32;;;;;;;16.23;12.30;;;;;;;22.66;53.97;101328.91;5044495;28;20068;-66
2023/06/29 08:56:00;;;;;;;18.30;13.15;;;;;;;22.67;54.10;101329.72;5044356;28;20049;-65
2023/06/29 08:58:29;;;;;;;19.75;12.88;;;;;;;22.66;54.13;101330.81;5043669;28;20182;-66
2023/06/29 09:00:57;;;;;;;20.77;13.80;;;;;;;22.70;54.11;101334.63;5042338;28;20065;-66
2023/06/29 09:03:26;;;;;;;17.17;12.43;;;;;;;22.70;53.76;101327.22;5042706;28;20164;-66
2023/06/29 09:05:55;;;;;;;17.33;12.75;;;;;;;22.71;53.92;101334.31;5036474;28;20058;-67
2023/06/29 09:08:24;;;;;;;19.73;14.23;;;;;;;22.74;53.86;101324.72;5039751;28;20061;-67
2023/06/29 09:10:53;;;;;;;18.40;13.85;;;;;;;22.77;54.00;101328.78;5041813;28;20049;-66
2023/06/29 09:13:21;;;;;;;18.58;13.27;;;;;;;22.77;53.71;101329.59;5043049;28;20100;-67
2023/06/29 09:15:50;;;;;;;20.23;13.85;;;;;;;22.78;53.49;101320.28;5044460;28;20136;-67
2023/06/29 09:18:22;;;;;;;19.45;14.35;;;;;;;22.78;53.66;101323.00;5041036;28;20056;-67
2023/06/29 09:20:51;;;;;;;22.25;15.13;;;;;;;22.78;53.52;101319.47;5037593;28;20050;-67
2023/06/29 09:23:20;;;;;;;22.83;15.68;;;;;;;22.79;52.90;101332.06;5032743;28;20045;-67
2023/06/29 09:25:50;;;;;;;20.30;14.68;;;;;;;22.78;52.95;101328.50;5043874;28;20058;-66
2023/06/29 09:28:18;;;;;;;21.42;15.02;;;;;;;22.80;53.22;101330.97;5042954;28;20056;-66
2023/06/29 09:30:46;;;;;;;21.15;14.52;;;;;;;22.80;53.19;101328.22;5043869;28;20119;-67
2023/06/29 09:33:15;;;;;;;22.17;16.30;;;;;;;22.79;53.01;101321.09;5042002;28;20109;-67
2023/06/29 09:35:45;;;;;;;21.40;15.48;;;;;;;22.80;53.12;101322.75;5043972;28;20502;-67
2023/06/29 09:38:15;;;;;;;22.73;14.85;;;;;;;22.80;52.84;101326.31;5043058;28;20049;-67
2023/06/29 09:40:52;;;;;;;22.48;16.05;;;;;;;22.82;52.76;101320.53;5041318;28;20072;-67
2023/06/29 09:43:22;;;;;;;23.42;15.13;;;;;;;22.82;52.57;101328.75;5042005;28;20049;-66
2023/06/29 09:45:52;;;;;;;22.88;15.30;;;;;;;22.83;52.47;101327.66;5043979;28;20053;-67
2023/06/29 09:48:22;;;;;;;21.85;15.52;;;;;;;22.82;52.58;101329.56;5030872;28;20054;-66
2023/06/29 09:50:55;;;;;;;22.88;14.88;;;;;;;22.81;52.34;101329.88;5046549;28;20057;-66
2023/06/29 09:53:31;;;;;;;21.58;15.43;;;;;;;22.85;52.20;101333.66;5043521;28;20049;-67
2023/06/29 09:56:01;;;;;;;21.83;15.52;;;;;;;22.83;52.47;101330.41;5041155;28;20053;-66
2023/06/29 09:58:31;;;;;;;21.85;15.00;;;;;;;22.86;52.34;101338.84;5044219;28;20437;-66
2023/06/29 10:01:01;;;;;;;22.50;15.45;;;;;;;22.89;52.66;101334.72;5043714;28;20054;-66
2023/06/29 10:03:31;;;;;;;19.85;14.57;;;;;;;22.87;52.65;101326.78;5041522;28;20042;-66
2023/06/29 10:06:04;;;;;;;22.65;14.70;;;;;;;22.89;52.88;101329.22;5043599;28;20060;-65
2023/06/29 10:08:35;;;;;;;21.55;14.85;;;;;;;22.94;52.40;101329.97;5043953;28;20487;-66
2023/06/29 10:11:05;;;;;;;19.92;14.05;;;;;;;22.98;52.70;101331.03;5043471;28;20096;-67
2023/06/29 10:13:38;;;;;;;21.40;15.32;;;;;;;23.02;52.89;101331.25;5030197;28;20052;-67
2023/06/29 10:16:09;;;;;;;19.60;13.88;;;;;;;23.02;52.74;101326.59;5043581;28;20057;-67
2023/06/29 10:18:42;;;;;;;22.60;16.15;;;;;;;23.02;52.35;101323.84;5042602;28;20052;-66
2023/06/29 10:21:10;;;;;;;21.17;14.60;;;;;;;23.04;52.50;101327.09;5046756;28;20095;-67
2023/06/29 10:23:41;;;;;;;19.95;13.93;;;;;;;23.05;52.33;101326.00;5046935;28;20100;-66
2023/06/29 10:26:11;;;;;;;22.55;15.18;;;;;;;23.04;52.64;101327.09;5046494;28;20125;-67
2023/06/29 10:28:40;;;;;;;22.50;14.80;;;;;;;23.08;52.02;101321.84;5046683;28;20050;-67
2023/06/29 10:31:08;;;;;;;19.58;13.77;;;;;;;23.10;52.53;101338.00;5047117;28;20057;-67
2023/06/29 10:33:46;;;;;;;19.00;14.27;;;;;;;23.09;52.19;101337.19;5045155;28;20045;-67
2023/06/29 10:36:16;;;;;;;21.00;14.57;;;;;;;23.10;51.97;101330.59;5047092;28;20045;-66
2023/06/29 10:38:45;;;;;;;25.80;14.93;;;;;;;23.09;52.42;101323.50;5047516;28;20055;-67
2023/06/29 10:41:27;;;;;;;23.30;15.05;;;;;;;23.11;52.24;101325.94;5041263;28;20072;-66
2023/06/29 10:43:56;;;;;;;22.48;16.38;;;;;;;23.12;52.06;101330.31;5036582;28;20053;-67
2023/06/29 10:46:42;;;;;;;20.55;15.18;;;;;;;23.13;52.52;101332.75;5046931;28;20099;-67
2023/06/29 10:49:21;;;;;;;22.27;15.80;;;;;;;23.13;52.10;101327.28;5036989;28;20073;-67
2023/06/29 10:51:53;;;;;;;22.95;15.80;;;;;;;23.16;52.58;101329.44;5046762;28;20060;-67
2023/06/29 10:54:24;;;;;;;20.80;15.50;;;;;;;23.17;52.03;101319.28;5046383;28;20049;-67
2023/06/29 10:57:01;;;;;;;20.88;15.00;;;;;;;23.20;52.15;101325.00;5045906;28;20076;-67
2023/06/29 10:59:29;;;;;;;19.42;13.80;;;;;;;23.20;52.49;101326.91;5044619;28;20057;-66
2023/06/29 11:01:57;;;;;;;19.75;14.15;;;;;;;23.22;52.59;101333.72;5046592;28;20091;-66
2023/06/29 11:04:26;;;;;;;20.23;14.35;;;;;;;23.23;52.08;101329.88;5038990;28;20045;-67
2023/06/29 11:06:54;;;;;;;20.38;15.35;;;;;;;23.23;52.29;101335.38;5046512;28;20071;-67
2023/06/29 11:09:22;;;;;;;21.83;15.50;;;;;;;23.22;51.97;101319.22;5044538;28;20049;-67
2023/06/29 11:11:50;;;;;;;22.20;15.05;;;;;;;23.24;51.78;101325.22;5046540;28;20061;-66
2023/06/29 11:14:19;;;;;;;21.35;14.82;;;;;;;23.29;51.87;101334.19;5046421;28;20049;-65
2023/06/29 11:16:48;;;;;;;20.55;14.27;;;;;;;23.29;51.77;101325.97;5046209;28;20148;-66